createdAt,value
2019-06-27T00:02:07.090Z,21.13
2019-06-27T00:04:35.484Z,21.11
2019-06-27T00:07:03.943Z,21.08
2019-06-27T00:09:32.360Z,21.08
2019-06-27T00:12:00.916Z,21.02
2019-06-27T00:14:29.317Z,20.94
2019-06-27T00:16:57.794Z,20.67
2019-06-27T00:19:27.375Z,20.79
2019-06-27T00:21:55.763Z,20.91
2019-06-27T00:24:24.173Z,20.81
2019-06-27T00:26:57.266Z,20.78
2019-06-27T00:29:22.742Z,20.51
2019-06-27T00:31:51.187Z,20.50
2019-06-27T00:34:19.687Z,20.35
2019-06-27T00:36:48.553Z,20.30
2019-06-27T00:39:16.951Z,20.33
2019-06-27T00:41:45.370Z,20.19
2019-06-27T00:44:13.922Z,20.07
2019-06-27T00:46:42.377Z,20.10
2019-06-27T00:49:10.789Z,20.07
2019-06-27T00:51:39.208Z,19.93
2019-06-27T00:54:07.627Z,20.06
2019-06-27T00:56:36.206Z,19.77
2019-06-27T00:59:04.648Z,19.83
2019-06-27T01:01:33.047Z,19.87
2019-06-27T01:04:01.450Z,19.82
2019-06-27T01:06:29.899Z,19.82
2019-06-27T01:08:58.322Z,19.65
2019-06-27T01:11:26.786Z,19.51
2019-06-27T01:13:55.215Z,19.58
2019-06-27T01:16:23.804Z,19.38
2019-06-27T01:18:52.239Z,19.20
2019-06-27T01:21:20.662Z,19.39
2019-06-27T01:23:49.120Z,19.26
2019-06-27T01:26:17.646Z,19.24
2019-06-27T01:28:46.319Z,19.25
2019-06-27T01:31:14.744Z,19.17
2019-06-27T01:33:43.168Z,19.20
2019-06-27T01:36:11.629Z,19.16
2019-06-27T01:38:40.233Z,19.08
2019-06-27T01:41:08.684Z,18.99
2019-06-27T01:43:37.195Z,19.19
2019-06-27T01:46:05.844Z,19.13
2019-06-27T01:48:34.305Z,19.20
2019-06-27T01:51:02.789Z,19.18
2019-06-27T01:53:31.194Z,18.92
2019-06-27T01:55:59.638Z,18.99
2019-06-27T01:58:28.040Z,19.07
2019-06-27T02:00:56.545Z,19.03
2019-06-27T02:03:25.590Z,19.03
2019-06-27T02:05:53.999Z,18.71
2019-06-27T02:08:22.630Z,18.71
2019-06-27T02:10:51.035Z,18.75
2019-06-27T02:13:19.467Z,18.54
2019-06-27T02:15:48.046Z,18.53
2019-06-27T02:18:16.541Z,18.36
2019-06-27T02:20:44.978Z,18.44
2019-06-27T02:23:15.862Z,18.23
2019-06-27T02:25:43.537Z,18.32
2019-06-27T02:28:11.959Z,18.24
2019-06-27T02:30:42.549Z,18.31
2019-06-27T02:33:11.194Z,18.16
2019-06-27T02:35:39.764Z,18.10
2019-06-27T02:38:08.275Z,18.14
2019-06-27T02:40:36.967Z,17.99
2019-06-27T02:43:05.763Z,18.05
2019-06-27T02:45:34.384Z,17.93
2019-06-27T02:48:02.846Z,17.91
2019-06-27T02:50:31.336Z,18.00
2019-06-27T02:52:59.776Z,17.89
2019-06-27T02:55:28.262Z,17.86
2019-06-27T02:57:56.696Z,17.99
2019-06-27T03:00:25.189Z,17.93
2019-06-27T03:02:53.976Z,17.89
2019-06-27T03:05:23.377Z,17.90
2019-06-27T03:07:51.805Z,17.67
2019-06-27T03:10:20.763Z,17.59
2019-06-27T03:12:49.175Z,17.53
2019-06-27T03:15:17.692Z,17.55
2019-06-27T03:17:46.125Z,17.59
2019-06-27T03:20:14.727Z,17.37
2019-06-27T03:22:43.115Z,17.40
2019-06-27T03:25:11.651Z,17.29
2019-06-27T03:27:40.071Z,17.43
2019-06-27T03:30:08.486Z,17.49
2019-06-27T03:32:36.971Z,17.48
2019-06-27T03:35:06.577Z,17.35
2019-06-27T03:37:35.064Z,17.31
2019-06-27T03:40:05.609Z,17.23
2019-06-27T03:42:34.067Z,17.42
2019-06-27T03:45:02.882Z,17.43
2019-06-27T03:47:31.488Z,17.43
2019-06-27T03:49:59.999Z,17.43
2019-06-27T03:52:28.524Z,17.47
2019-06-27T03:54:57.001Z,17.31
2019-06-27T03:57:25.444Z,17.26
2019-06-27T03:59:53.848Z,17.49
2019-06-27T04:02:22.431Z,17.80
2019-06-27T04:04:50.845Z,17.67
2019-06-27T04:07:19.279Z,17.69
2019-06-27T04:09:47.722Z,18.35
2019-06-27T04:12:16.135Z,17.96
2019-06-27T04:14:44.554Z,17.91
2019-06-27T04:17:13.011Z,17.86
2019-06-27T04:19:41.520Z,17.95
2019-06-27T04:22:09.944Z,18.51
2019-06-27T04:24:38.366Z,18.97
2019-06-27T04:27:06.966Z,18.50
2019-06-27T04:29:35.427Z,18.26
2019-06-27T04:32:03.870Z,18.89
2019-06-27T04:34:32.279Z,19.32
2019-06-27T04:37:00.715Z,19.39
2019-06-27T04:39:29.252Z,18.85
2019-06-27T04:41:57.675Z,19.83
2019-06-27T04:44:26.127Z,20.66
2019-06-27T04:46:54.547Z,20.17
2019-06-27T04:49:24.552Z,20.43
2019-06-27T04:51:55.455Z,20.31
2019-06-27T04:54:24.126Z,20.28
2019-06-27T04:56:52.590Z,19.34
2019-06-27T04:59:21.772Z,19.58
2019-06-27T05:01:50.329Z,20.02
2019-06-27T05:04:18.775Z,20.23
2019-06-27T05:06:47.185Z,20.23
2019-06-27T05:09:16.661Z,20.74
2019-06-27T05:11:46.024Z,21.27
2019-06-27T05:14:14.457Z,22.07
2019-06-27T05:16:42.903Z,21.44
2019-06-27T05:19:11.391Z,22.18
2019-06-27T05:21:39.815Z,21.22
2019-06-27T05:24:08.285Z,20.16
2019-06-27T05:26:36.711Z,19.93
2019-06-27T05:29:05.126Z,19.87
2019-06-27T05:31:33.582Z,19.50
2019-06-27T05:34:02.030Z,21.04
2019-06-27T05:36:30.444Z,20.51
2019-06-27T05:38:58.853Z,20.31
2019-06-27T05:41:27.305Z,21.28
2019-06-27T05:43:55.725Z,22.35
2019-06-27T05:46:24.192Z,22.60
2019-06-27T05:48:52.567Z,22.77
2019-06-27T05:51:21.026Z,22.96
2019-06-27T05:53:49.454Z,23.24
2019-06-27T05:56:17.874Z,22.62
2019-06-27T05:58:46.316Z,23.80
2019-06-27T06:01:14.741Z,24.03
2019-06-27T06:03:43.189Z,21.70
2019-06-27T06:06:11.992Z,21.85
2019-06-27T06:08:40.602Z,22.58
2019-06-27T06:11:09.083Z,22.97
2019-06-27T06:13:37.499Z,24.47
2019-06-27T06:16:05.976Z,23.42
2019-06-27T06:18:34.383Z,24.11
2019-06-27T06:21:02.797Z,25.17
2019-06-27T06:23:31.223Z,24.62
2019-06-27T06:25:59.925Z,25.03
2019-06-27T06:28:28.487Z,25.94
2019-06-27T06:30:57.998Z,25.88
2019-06-27T06:33:26.920Z,23.64
2019-06-27T06:35:55.575Z,24.45
2019-06-27T06:38:26.921Z,23.67
2019-06-27T06:40:55.414Z,23.32
2019-06-27T06:43:23.861Z,23.67
2019-06-27T06:45:52.259Z,22.25
2019-06-27T06:48:20.706Z,24.25
2019-06-27T06:50:49.142Z,25.23
2019-06-27T06:53:17.565Z,26.05
2019-06-27T06:55:45.985Z,25.86
2019-06-27T06:58:14.508Z,26.31
2019-06-27T07:00:57.025Z,25.21
2019-06-27T07:03:13.030Z,25.16
2019-06-27T07:05:41.471Z,24.34
2019-06-27T07:08:09.871Z,24.45
2019-06-27T07:10:43.950Z,24.44
2019-06-27T07:13:13.674Z,24.09
2019-06-27T07:15:42.127Z,24.72
2019-06-27T07:18:10.574Z,23.40
2019-06-27T07:20:39.108Z,23.76
2019-06-27T07:23:07.635Z,23.39
2019-06-27T07:25:36.081Z,23.82
2019-06-27T07:28:04.531Z,24.78
2019-06-27T07:30:32.960Z,24.37
2019-06-27T07:33:01.538Z,23.07
2019-06-27T07:35:30.078Z,22.94
2019-06-27T07:37:58.535Z,22.32
2019-06-27T07:40:26.944Z,22.34
2019-06-27T07:42:55.365Z,23.90
2019-06-27T07:45:23.873Z,23.82
2019-06-27T07:47:52.335Z,24.87
2019-06-27T07:50:20.885Z,23.51
2019-06-27T07:52:49.298Z,22.79
2019-06-27T07:55:17.782Z,22.92
2019-06-27T07:57:46.349Z,23.27
2019-06-27T08:00:15.102Z,22.95
2019-06-27T08:02:43.520Z,23.14
2019-06-27T08:05:12.263Z,24.45
2019-06-27T08:07:40.926Z,24.45
2019-06-27T08:10:09.771Z,24.89
2019-06-27T08:12:42.094Z,24.89
2019-06-27T08:15:08.768Z,25.98
2019-06-27T08:17:37.197Z,26.26
2019-06-27T08:20:07.273Z,26.31
2019-06-27T08:22:35.690Z,26.66
2019-06-27T08:25:05.558Z,26.82
2019-06-27T08:27:33.981Z,26.80
2019-06-27T08:30:02.442Z,27.25
2019-06-27T08:32:30.910Z,27.08
2019-06-27T08:34:59.286Z,27.64
2019-06-27T08:37:27.850Z,27.66
2019-06-27T08:39:56.317Z,27.65
2019-06-27T08:42:24.759Z,26.15
2019-06-27T08:44:53.249Z,26.58
2019-06-27T08:47:23.046Z,26.68
2019-06-27T08:49:51.623Z,27.27
2019-06-27T08:52:20.034Z,27.62
2019-06-27T08:54:48.659Z,28.01
2019-06-27T08:57:17.056Z,27.55
2019-06-27T08:59:45.496Z,27.98
2019-06-27T09:02:13.963Z,27.29
2019-06-27T09:04:42.398Z,26.04
2019-06-27T09:07:10.848Z,26.25
2019-06-27T09:09:39.318Z,26.48
2019-06-27T09:12:07.712Z,27.38
2019-06-27T09:14:36.135Z,27.93
2019-06-27T09:17:04.658Z,27.59
2019-06-27T09:19:33.115Z,28.16
2019-06-27T09:22:01.584Z,27.89
2019-06-27T09:24:30.957Z,27.94
2019-06-27T09:26:59.418Z,28.41
2019-06-27T09:29:27.853Z,28.86
2019-06-27T09:31:56.296Z,28.48
2019-06-27T09:34:24.722Z,28.34
2019-06-27T09:36:53.172Z,28.08
2019-06-27T09:39:21.598Z,27.92
2019-06-27T09:41:50.047Z,28.62
2019-06-27T09:44:18.508Z,28.47
2019-06-27T09:46:46.929Z,28.29
2019-06-27T09:49:15.363Z,28.17
2019-06-27T09:51:43.818Z,27.13
2019-06-27T09:54:12.231Z,28.08
2019-06-27T09:56:40.641Z,27.49
2019-06-27T09:59:09.067Z,28.86
2019-06-27T10:01:37.557Z,28.53
2019-06-27T10:04:05.926Z,28.67
2019-06-27T10:06:34.374Z,28.24
2019-06-27T10:09:02.883Z,27.64
2019-06-27T10:11:31.479Z,28.43
2019-06-27T10:13:59.925Z,29.04
2019-06-27T10:16:28.463Z,29.39
2019-06-27T10:18:56.875Z,29.62
2019-06-27T10:21:25.380Z,29.34
2019-06-27T10:23:53.852Z,28.81
2019-06-27T10:26:22.262Z,28.60
2019-06-27T10:28:50.738Z,29.62
2019-06-27T10:31:19.223Z,30.17
2019-06-27T10:33:47.672Z,29.59
2019-06-27T10:36:16.171Z,30.02
2019-06-27T10:38:44.623Z,29.33
2019-06-27T10:41:13.050Z,28.31
2019-06-27T10:43:41.531Z,29.36
2019-06-27T10:46:09.933Z,29.71
2019-06-27T10:48:38.388Z,30.22
2019-06-27T10:51:06.871Z,29.41
2019-06-27T10:53:35.300Z,30.29
2019-06-27T10:56:03.745Z,29.77
2019-06-27T10:58:32.179Z,29.37
2019-06-27T11:01:00.607Z,30.56
2019-06-27T11:03:29.053Z,30.57
2019-06-27T11:05:57.448Z,30.84
2019-06-27T11:08:25.884Z,28.79
2019-06-27T11:10:55.437Z,29.36
2019-06-27T11:13:24.050Z,29.36
2019-06-27T11:15:52.457Z,28.93
2019-06-27T11:18:21.582Z,28.85
2019-06-27T11:20:50.089Z,27.81
2019-06-27T11:23:18.511Z,29.04
2019-06-27T11:25:46.954Z,28.63
2019-06-27T11:28:15.419Z,28.88
2019-06-27T11:30:43.829Z,30.10
2019-06-27T11:33:12.255Z,30.54
2019-06-27T11:35:40.696Z,31.10
2019-06-27T11:38:09.123Z,31.48
2019-06-27T11:40:37.610Z,31.42
2019-06-27T11:43:06.017Z,31.32
2019-06-27T11:45:34.442Z,31.18
2019-06-27T11:48:02.867Z,30.12
2019-06-27T11:50:31.473Z,30.52
2019-06-27T11:52:59.935Z,30.01
2019-06-27T11:55:28.440Z,29.26
2019-06-27T11:57:56.940Z,27.58
2019-06-27T12:00:25.504Z,29.13
2019-06-27T12:02:53.902Z,30.27
2019-06-27T12:05:22.365Z,30.74
2019-06-27T12:07:51.010Z,31.05
2019-06-27T12:10:20.690Z,30.07
2019-06-27T12:12:49.120Z,31.07
2019-06-27T12:15:17.602Z,31.01
2019-06-27T12:17:46.305Z,30.01
2019-06-27T12:20:15.678Z,30.62
2019-06-27T12:22:44.129Z,31.17
2019-06-27T12:25:12.968Z,30.30
2019-06-27T12:27:41.428Z,30.60
2019-06-27T12:30:10.695Z,30.85
2019-06-27T12:32:51.053Z,31.17
2019-06-27T12:35:09.753Z,30.96
2019-06-27T12:37:39.842Z,30.11
2019-06-27T12:40:10.022Z,30.12
2019-06-27T12:42:38.449Z,30.66
2019-06-27T12:45:08.428Z,30.41
2019-06-27T12:47:36.853Z,30.06
2019-06-27T12:50:08.731Z,30.86
2019-06-27T12:52:37.247Z,30.34
2019-06-27T12:55:06.976Z,30.98
2019-06-27T12:57:35.402Z,30.63
2019-06-27T13:00:09.045Z,30.87
2019-06-27T13:02:37.760Z,30.72
2019-06-27T13:05:06.962Z,31.24
2019-06-27T13:07:35.399Z,31.01
2019-06-27T13:10:05.567Z,31.11
2019-06-27T13:12:33.985Z,30.95
2019-06-27T13:15:02.553Z,31.26
2019-06-27T13:17:31.001Z,30.46
2019-06-27T13:19:59.423Z,30.46
2019-06-27T13:22:27.840Z,29.29
2019-06-27T13:24:56.406Z,30.24
2019-06-27T13:27:24.888Z,29.58
2019-06-27T13:29:53.310Z,29.88
2019-06-27T13:32:25.340Z,30.15
2019-06-27T13:34:53.236Z,29.26
2019-06-27T13:37:21.658Z,29.55
2019-06-27T13:39:50.090Z,30.19
2019-06-27T13:42:18.506Z,30.58
2019-06-27T13:44:47.041Z,30.45
2019-06-27T13:47:15.548Z,30.61
2019-06-27T13:49:45.257Z,31.35
2019-06-27T13:52:14.004Z,30.74
2019-06-27T13:54:42.472Z,30.63
2019-06-27T13:57:10.906Z,30.61
2019-06-27T13:59:40.512Z,30.79
2019-06-27T14:02:08.921Z,30.79
2019-06-27T14:04:37.424Z,30.16
2019-06-27T14:07:05.838Z,30.32
2019-06-27T14:09:47.690Z,31.36
2019-06-27T14:12:05.006Z,30.15
2019-06-27T14:14:33.612Z,30.25
2019-06-27T14:17:02.106Z,30.37
2019-06-27T14:19:30.815Z,28.99
2019-06-27T14:21:59.561Z,30.53
2019-06-27T14:24:28.225Z,31.40
2019-06-27T14:26:56.615Z,31.31
2019-06-27T14:29:25.091Z,30.89
2019-06-27T14:31:53.664Z,31.23
2019-06-27T14:34:22.227Z,30.56
2019-06-27T14:36:54.286Z,30.88
2019-06-27T14:39:21.754Z,31.15
2019-06-27T14:41:50.239Z,31.56
2019-06-27T14:44:18.642Z,31.54
2019-06-27T14:46:47.137Z,31.13
2019-06-27T14:49:15.678Z,30.76
2019-06-27T14:51:44.620Z,31.47
2019-06-27T14:54:13.040Z,31.28
2019-06-27T14:56:41.710Z,31.51
2019-06-27T14:59:14.151Z,30.91
2019-06-27T15:01:40.806Z,29.32
2019-06-27T15:04:09.220Z,30.26
2019-06-27T15:06:37.796Z,29.39
2019-06-27T15:09:06.187Z,30.43
2019-06-27T15:11:34.667Z,30.36
2019-06-27T15:14:03.081Z,30.56
2019-06-27T15:16:31.476Z,31.24
2019-06-27T15:18:59.922Z,30.83
2019-06-27T15:21:28.425Z,30.66
2019-06-27T15:23:56.874Z,30.91
2019-06-27T15:26:25.366Z,30.93
2019-06-27T15:28:53.845Z,31.29
2019-06-27T15:31:22.650Z,29.30
2019-06-27T15:33:51.045Z,30.70
2019-06-27T15:36:19.477Z,30.78
2019-06-27T15:38:47.902Z,30.80
2019-06-27T15:41:16.368Z,30.28
2019-06-27T15:43:44.804Z,29.35
2019-06-27T15:46:13.230Z,29.00
2019-06-27T15:48:41.682Z,29.22
2019-06-27T15:51:10.102Z,29.38
2019-06-27T15:53:38.904Z,30.28
2019-06-27T15:56:07.340Z,30.05
2019-06-27T15:58:35.783Z,29.96
2019-06-27T16:01:04.200Z,29.50
2019-06-27T16:03:32.617Z,29.64
2019-06-27T16:06:09.171Z,30.30
2019-06-27T16:08:31.249Z,30.19
2019-06-27T16:10:59.709Z,29.94
2019-06-27T16:13:28.132Z,28.62
2019-06-27T16:15:56.583Z,27.86
2019-06-27T16:18:27.592Z,28.63
2019-06-27T16:20:57.151Z,28.79
2019-06-27T16:23:25.749Z,28.91
2019-06-27T16:25:54.268Z,29.02
2019-06-27T16:28:22.654Z,28.51
2019-06-27T16:30:51.083Z,28.24
2019-06-27T16:33:19.632Z,28.77
2019-06-27T16:35:48.050Z,28.37
2019-06-27T16:38:16.492Z,28.17
2019-06-27T16:40:44.927Z,28.21
2019-06-27T16:43:13.356Z,28.17
2019-06-27T16:45:41.806Z,27.86
2019-06-27T16:48:10.306Z,27.73
2019-06-27T16:50:38.744Z,27.86
2019-06-27T16:53:07.143Z,28.03
2019-06-27T16:55:36.507Z,27.70
2019-06-27T16:58:04.980Z,27.45
2019-06-27T17:00:33.424Z,26.99
2019-06-27T17:03:01.851Z,27.48
2019-06-27T17:05:30.287Z,27.44
2019-06-27T17:07:58.728Z,27.40
2019-06-27T17:10:27.137Z,27.31
2019-06-27T17:12:55.568Z,27.49
2019-06-27T17:15:24.225Z,27.50
2019-06-27T17:17:52.726Z,27.44
2019-06-27T17:20:24.130Z,27.34
2019-06-27T17:22:52.661Z,26.83
2019-06-27T17:25:21.061Z,26.62
2019-06-27T17:27:51.685Z,27.00
2019-06-27T17:30:22.763Z,26.92
2019-06-27T17:32:51.944Z,26.48
2019-06-27T17:35:20.496Z,26.66
2019-06-27T17:37:48.947Z,26.49
2019-06-27T17:40:17.819Z,26.15
2019-06-27T17:42:46.265Z,26.36
2019-06-27T17:45:15.125Z,26.14
2019-06-27T17:47:43.611Z,26.16
2019-06-27T17:50:12.260Z,26.12
2019-06-27T17:52:40.734Z,26.08
2019-06-27T17:55:09.607Z,25.67
2019-06-27T17:57:38.029Z,25.63
2019-06-27T18:00:07.060Z,25.55
2019-06-27T18:02:36.856Z,25.85
2019-06-27T18:05:06.364Z,25.63
2019-06-27T18:07:35.239Z,25.54
2019-06-27T18:10:04.860Z,25.74
2019-06-27T18:12:33.348Z,25.36
2019-06-27T18:15:01.797Z,25.42
2019-06-27T18:17:33.925Z,25.33
2019-06-27T18:20:00.407Z,25.47
2019-06-27T18:22:28.800Z,25.37
2019-06-27T18:24:57.261Z,25.46
2019-06-27T18:27:25.778Z,25.24
2019-06-27T18:29:54.224Z,25.38
2019-06-27T18:32:22.665Z,25.29
2019-06-27T18:34:51.111Z,24.95
2019-06-27T18:37:29.165Z,24.98
2019-06-27T18:39:50.005Z,24.84
2019-06-27T18:42:18.526Z,24.95
2019-06-27T18:44:46.974Z,24.76
2019-06-27T18:47:15.442Z,24.86
2019-06-27T18:49:44.909Z,24.65
2019-06-27T18:52:13.494Z,24.69
2019-06-27T18:54:41.967Z,24.84
2019-06-27T18:57:10.488Z,24.74
2019-06-27T18:59:38.900Z,24.67
2019-06-27T19:02:08.511Z,24.39
2019-06-27T19:04:39.554Z,24.40
2019-06-27T19:07:09.741Z,24.19
2019-06-27T19:09:38.280Z,24.26
2019-06-27T19:12:06.683Z,24.29
2019-06-27T19:14:35.097Z,24.27
2019-06-27T19:17:03.595Z,24.07
2019-06-27T19:19:36.235Z,23.96
2019-06-27T19:22:09.533Z,23.88
2019-06-27T19:24:42.324Z,23.76
2019-06-27T19:27:10.730Z,23.61
2019-06-27T19:29:39.213Z,23.52
2019-06-27T19:32:07.630Z,23.55
2019-06-27T19:34:36.063Z,23.28
2019-06-27T19:37:04.555Z,23.41
2019-06-27T19:39:32.972Z,23.25
2019-06-27T19:42:01.668Z,23.16
2019-06-27T19:44:30.110Z,23.12
2019-06-27T19:46:58.581Z,23.14
2019-06-27T19:49:27.080Z,22.94
2019-06-27T19:51:55.518Z,22.89
2019-06-27T19:54:23.933Z,22.75
2019-06-27T19:56:52.329Z,22.72
2019-06-27T19:59:20.777Z,22.69
2019-06-27T20:01:49.190Z,22.71
2019-06-27T20:04:17.710Z,22.58
2019-06-27T20:06:46.152Z,22.58
2019-06-27T20:09:14.580Z,22.45
2019-06-27T20:11:43.006Z,22.28
2019-06-27T20:14:11.470Z,22.32
2019-06-27T20:16:39.893Z,22.20
2019-06-27T20:19:08.350Z,21.99
2019-06-27T20:21:36.761Z,21.98
2019-06-27T20:24:05.217Z,21.89
2019-06-27T20:26:33.676Z,21.77
2019-06-27T20:29:02.113Z,21.71
2019-06-27T20:31:30.589Z,21.52
2019-06-27T20:33:59.018Z,21.58
2019-06-27T20:36:27.446Z,21.46
2019-06-27T20:38:55.940Z,21.41
2019-06-27T20:41:24.828Z,21.24
2019-06-27T20:43:53.299Z,21.36
2019-06-27T20:46:21.912Z,21.19
2019-06-27T20:48:53.733Z,21.14
2019-06-27T20:51:21.444Z,21.03
2019-06-27T20:53:49.890Z,20.94
2019-06-27T20:56:18.311Z,20.84
2019-06-27T20:58:46.853Z,20.76
2019-06-27T21:01:15.295Z,20.73
2019-06-27T21:03:43.819Z,20.54
2019-06-27T21:06:12.230Z,20.45
2019-06-27T21:08:50.729Z,20.62
2019-06-27T21:11:11.153Z,20.29
2019-06-27T21:13:39.626Z,20.12
2019-06-27T21:16:08.161Z,20.00
2019-06-27T21:18:37.195Z,20.02
2019-06-27T21:21:05.771Z,19.91
2019-06-27T21:23:34.264Z,19.90
2019-06-27T21:26:04.293Z,19.84
2019-06-27T21:28:32.787Z,19.74
2019-06-27T21:31:01.587Z,19.47
2019-06-27T21:33:30.129Z,19.57
2019-06-27T21:35:58.578Z,19.57
2019-06-27T21:38:28.631Z,19.26
2019-06-27T21:40:57.625Z,19.38
2019-06-27T21:43:26.036Z,19.15
2019-06-27T21:45:54.585Z,19.06
2019-06-27T21:48:23.035Z,19.13
2019-06-27T21:50:51.433Z,19.02
2019-06-27T21:53:19.835Z,19.00
2019-06-27T21:55:48.268Z,18.75
2019-06-27T21:58:16.680Z,18.86
2019-06-27T22:00:45.659Z,18.73
2019-06-27T22:03:14.129Z,18.60
2019-06-27T22:05:43.452Z,18.30
2019-06-27T22:08:11.860Z,18.44
2019-06-27T22:10:40.366Z,18.30
2019-06-27T22:13:08.901Z,18.22
2019-06-27T22:15:37.303Z,18.23
2019-06-27T22:18:05.769Z,18.15
2019-06-27T22:20:34.339Z,18.14
2019-06-27T22:23:02.799Z,18.15
2019-06-27T22:25:40.552Z,17.98
2019-06-27T22:28:02.404Z,18.02
2019-06-27T22:30:31.000Z,18.00
2019-06-27T22:33:00.255Z,18.10
2019-06-27T22:35:28.705Z,18.09
2019-06-27T22:38:15.160Z,17.98
2019-06-27T22:41:01.356Z,17.88
2019-06-27T22:43:47.151Z,18.00
2019-06-27T22:46:33.733Z,17.95
2019-06-27T22:49:01.572Z,17.77
2019-06-27T22:51:31.755Z,17.50
2019-06-27T22:54:02.243Z,17.65
2019-06-27T22:56:30.873Z,17.74
2019-06-27T22:58:59.271Z,17.65
2019-06-27T23:01:27.711Z,17.55
2019-06-27T23:03:56.147Z,17.55
2019-06-27T23:06:24.553Z,17.63
2019-06-27T23:08:52.979Z,17.58
2019-06-27T23:11:21.409Z,17.58
2019-06-27T23:13:49.836Z,17.55
2019-06-27T23:16:18.250Z,17.49
2019-06-27T23:18:46.653Z,17.45
2019-06-27T23:21:15.074Z,17.39
2019-06-27T23:23:43.502Z,17.31
2019-06-27T23:26:11.900Z,17.26
2019-06-27T23:28:40.364Z,17.21
2019-06-27T23:31:08.801Z,17.14
2019-06-27T23:33:37.237Z,17.08
2019-06-27T23:36:05.639Z,17.01
2019-06-27T23:38:34.081Z,16.93
2019-06-27T23:41:02.541Z,16.93
2019-06-27T23:43:30.930Z,16.80
2019-06-27T23:45:59.407Z,16.82
2019-06-27T23:48:27.856Z,16.66
2019-06-27T23:50:56.704Z,16.59
2019-06-27T23:53:25.136Z,16.42
2019-06-27T23:55:53.566Z,16.36
2019-06-27T23:58:21.978Z,16.26
